Аэропорт: Витязево. Анапа

ICAO: URKA

METAR:
2022-06-26 10:00:00
URKA 261000Z 05007MPS 7000 -SHRA SCT015 BKN032CB 19/18 Q1010 R04/290160 TEMPO VRB09G17MPS 0800 +TSRA SCT004 BKN016CB RMK QFE754/1005
METAR:
2022-06-26 07:59:00
TAF URKA 260759Z 2609/2709 06003G08MPS 9999 BKN020CB TEMPO 2609/2709 VRB07G16MPS 6000 -SHRA BKN016CB PROB40 2609/2709 -TSRA